createdAt,value
2019-03-10T00:00:20.506Z,22.85
2019-03-10T00:02:48.922Z,17.60
2019-03-10T00:05:17.359Z,17.70
2019-03-10T00:07:45.775Z,20.90
2019-03-10T00:10:14.241Z,17.62
2019-03-10T00:12:42.714Z,10.28
2019-03-10T00:15:12.182Z,17.45
2019-03-10T00:17:40.643Z,20.57
2019-03-10T00:20:10.413Z,21.80
2019-03-10T00:22:38.915Z,23.10
2019-03-10T00:25:08.710Z,26.30
2019-03-10T00:27:37.087Z,19.75
2019-03-10T00:30:15.851Z,25.62
2019-03-10T00:32:44.283Z,19.67
2019-03-10T00:35:12.662Z,23.10
2019-03-10T00:37:41.139Z,16.75
2019-03-10T00:40:46.416Z,27.45
2019-03-10T00:43:46.702Z,26.77
2019-03-10T00:46:33.571Z,15.93
2019-03-10T00:49:17.388Z,19.82
2019-03-10T00:52:06.837Z,24.32
2019-03-10T00:54:35.224Z,18.48
2019-03-10T00:57:03.686Z,20.62
2019-03-10T00:59:32.274Z,23.35
2019-03-10T01:02:00.913Z,23.27
2019-03-10T01:04:29.275Z,21.10
2019-03-10T01:06:57.782Z,21.85
2019-03-10T01:09:26.230Z,22.35
2019-03-10T01:11:54.656Z,22.02
2019-03-10T01:14:23.087Z,25.97
2019-03-10T01:16:51.563Z,29.02
2019-03-10T01:19:20.270Z,19.15
2019-03-10T01:21:49.222Z,23.47
2019-03-10T01:24:17.666Z,23.00
2019-03-10T01:26:46.107Z,23.45
2019-03-10T01:29:14.577Z,28.95
2019-03-10T01:32:22.733Z,27.52
2019-03-10T01:35:00.414Z,24.47
2019-03-10T01:37:28.805Z,24.65
2019-03-10T01:39:57.221Z,20.55
2019-03-10T01:42:25.629Z,22.75
2019-03-10T01:44:54.055Z,23.30
2019-03-10T01:47:22.430Z,29.63
2019-03-10T01:49:50.886Z,23.92
2019-03-10T01:52:19.332Z,28.40
2019-03-10T01:54:47.857Z,15.03
2019-03-10T01:57:16.262Z,17.90
2019-03-10T01:59:44.666Z,39.78
2019-03-10T02:02:13.099Z,21.35
2019-03-10T02:04:41.521Z,22.42
2019-03-10T02:07:09.977Z,23.85
2019-03-10T02:09:38.498Z,23.27
2019-03-10T02:12:06.976Z,27.40
2019-03-10T02:14:35.397Z,28.98
2019-03-10T02:17:03.791Z,30.60
2019-03-10T02:19:32.222Z,23.50
2019-03-10T02:22:00.655Z,25.97
2019-03-10T02:24:29.190Z,21.93
2019-03-10T02:26:57.702Z,21.70
2019-03-10T02:29:26.126Z,22.93
2019-03-10T02:31:54.557Z,24.75
2019-03-10T02:34:23.033Z,25.35
2019-03-10T02:36:51.435Z,26.93
2019-03-10T02:39:19.834Z,20.17
2019-03-10T02:41:48.236Z,20.15
2019-03-10T02:44:16.706Z,30.85
2019-03-10T02:46:45.231Z,29.27
2019-03-10T02:49:13.742Z,23.57
2019-03-10T02:51:42.229Z,23.92
2019-03-10T02:54:10.570Z,28.25
2019-03-10T02:56:39.033Z,21.20
2019-03-10T02:59:07.454Z,23.85
2019-03-10T03:01:35.875Z,21.65
2019-03-10T03:04:04.328Z,29.18
2019-03-10T03:06:32.704Z,27.75
2019-03-10T03:09:01.192Z,23.38
2019-03-10T03:11:29.658Z,25.10
2019-03-10T03:13:58.158Z,29.05
2019-03-10T03:16:26.567Z,21.73
2019-03-10T03:18:55.102Z,25.40
2019-03-10T03:21:23.582Z,26.02
2019-03-10T03:23:51.975Z,19.05
2019-03-10T03:26:20.405Z,22.87
2019-03-10T03:28:48.823Z,26.00
2019-03-10T03:31:17.246Z,24.98
2019-03-10T03:33:45.788Z,23.90
2019-03-10T03:36:20.276Z,30.43
2019-03-10T03:38:58.224Z,24.25
2019-03-10T03:41:26.966Z,23.83
2019-03-10T03:43:55.358Z,19.85
2019-03-10T03:46:23.778Z,16.35
2019-03-10T03:48:52.272Z,17.17
2019-03-10T03:51:20.729Z,22.60
2019-03-10T03:53:49.097Z,23.10
2019-03-10T03:56:17.607Z,20.17
2019-03-10T03:58:45.986Z,30.55
2019-03-10T04:01:16.090Z,25.75
2019-03-10T04:03:44.501Z,14.73
2019-03-10T04:06:12.930Z,24.85
2019-03-10T04:08:41.336Z,19.67
2019-03-10T04:11:09.746Z,13.18
2019-03-10T04:13:38.159Z,24.55
2019-03-10T04:16:06.604Z,22.13
2019-03-10T04:18:34.976Z,24.45
2019-03-10T04:21:03.405Z,24.47
2019-03-10T04:23:31.834Z,29.90
2019-03-10T04:26:00.241Z,14.95
2019-03-10T04:28:28.673Z,19.67
2019-03-10T04:30:57.072Z,24.87
2019-03-10T04:33:25.484Z,22.75
2019-03-10T04:35:53.983Z,28.50
2019-03-10T04:38:22.547Z,20.23
2019-03-10T04:40:51.234Z,22.22
2019-03-10T04:43:19.724Z,19.40
2019-03-10T04:45:48.134Z,25.80
2019-03-10T04:48:16.547Z,26.25
2019-03-10T04:50:45.058Z,33.55
2019-03-10T04:53:13.494Z,23.40
2019-03-10T04:56:01.845Z,26.68
2019-03-10T04:58:30.914Z,21.80
2019-03-10T05:01:00.247Z,25.50
2019-03-10T05:03:28.629Z,36.38
2019-03-10T05:05:57.044Z,30.70
2019-03-10T05:08:25.524Z,26.17
2019-03-10T05:10:53.979Z,24.98
2019-03-10T05:13:22.373Z,28.40
2019-03-10T05:15:50.863Z,20.25
2019-03-10T05:18:19.270Z,21.25
2019-03-10T05:20:48.461Z,21.07
2019-03-10T05:23:38.036Z,24.87
2019-03-10T05:26:06.477Z,20.92
2019-03-10T05:28:37.409Z,28.25
2019-03-10T05:31:05.939Z,20.15
2019-03-10T05:33:34.433Z,30.82
2019-03-10T05:36:02.808Z,23.50
2019-03-10T05:38:31.192Z,23.45
2019-03-10T05:40:59.611Z,24.70
2019-03-10T05:43:28.020Z,18.42
2019-03-10T05:45:56.419Z,20.50
2019-03-10T05:48:24.832Z,28.70
2019-03-10T05:50:53.243Z,22.98
2019-03-10T05:53:21.622Z,20.75
2019-03-10T05:55:50.025Z,26.87
2019-03-10T05:58:18.529Z,30.05
2019-03-10T06:00:46.924Z,16.90
2019-03-10T06:03:15.431Z,22.27
2019-03-10T06:05:43.852Z,14.28
2019-03-10T06:08:12.247Z,20.10
2019-03-10T06:10:40.688Z,19.65
2019-03-10T06:13:09.076Z,24.07
2019-03-10T06:15:37.522Z,17.57
2019-03-10T06:18:13.439Z,24.12
2019-03-10T06:20:36.163Z,23.62
2019-03-10T06:23:04.544Z,22.60
2019-03-10T06:25:35.069Z,18.67
2019-03-10T06:28:03.049Z,25.43
2019-03-10T06:30:31.427Z,17.57
2019-03-10T06:32:59.835Z,14.90
2019-03-10T06:35:28.518Z,13.98
2019-03-10T06:37:56.929Z,20.62
2019-03-10T06:40:32.169Z,22.32
2019-03-10T06:42:55.357Z,16.90
2019-03-10T06:45:23.756Z,18.15
2019-03-10T06:47:52.154Z,32.10
2019-03-10T06:50:20.577Z,39.30
2019-03-10T06:52:49.039Z,27.20
2019-03-10T06:55:17.667Z,52.10
2019-03-10T06:57:46.117Z,26.80
2019-03-10T07:00:14.612Z,23.25
2019-03-10T07:02:43.039Z,34.18
2019-03-10T07:05:12.378Z,39.58
2019-03-10T07:07:40.795Z,46.37
2019-03-10T07:10:15.019Z,51.33
2019-03-10T07:12:43.415Z,92.57
2019-03-10T07:15:12.944Z,50.95
2019-03-10T07:17:41.372Z,49.35
2019-03-10T07:20:15.818Z,34.80
2019-03-10T07:22:44.263Z,34.03
2019-03-10T07:25:12.721Z,39.67
2019-03-10T07:27:57.755Z,21.77
2019-03-10T07:30:36.340Z,26.25
2019-03-10T07:33:21.341Z,30.05
2019-03-10T07:35:57.239Z,30.02
2019-03-10T07:38:30.387Z,28.27
2019-03-10T07:41:18.872Z,19.80
2019-03-10T07:43:58.173Z,14.05
2019-03-10T07:46:44.269Z,18.15
2019-03-10T07:49:14.266Z,16.05
2019-03-10T07:52:00.933Z,26.07
2019-03-10T07:54:31.018Z,17.67
2019-03-10T07:57:03.761Z,21.30
2019-03-10T08:02:03.252Z,13.45
2019-03-10T08:04:45.482Z,6.55
2019-03-10T08:07:18.589Z,10.38
2019-03-10T08:09:51.420Z,14.95
2019-03-10T08:15:03.338Z,22.70
2019-03-10T08:17:39.068Z,21.45
2019-03-10T08:20:27.283Z,7.22
2019-03-10T08:22:59.172Z,13.83
2019-03-10T08:25:31.875Z,17.95
2019-03-10T08:28:20.285Z,7.30
2019-03-10T08:31:06.506Z,12.18
2019-03-10T08:33:52.874Z,13.43
2019-03-10T08:36:28.479Z,19.67
2019-03-10T08:39:01.311Z,16.20
2019-03-10T08:44:00.848Z,10.53
2019-03-10T08:46:47.189Z,11.38
2019-03-10T08:49:20.109Z,9.15
2019-03-10T08:51:53.013Z,11.08
2019-03-10T08:54:23.219Z,18.87
2019-03-10T08:56:59.057Z,16.10
2019-03-10T08:59:40.737Z,6.47
2019-03-10T09:02:19.594Z,12.63
2019-03-10T09:05:07.799Z,11.60
2019-03-10T09:07:37.813Z,6.65
2019-03-10T09:10:29.271Z,4.20
2019-03-10T09:13:02.477Z,7.65
2019-03-10T09:15:35.414Z,7.60
2019-03-10T09:18:08.513Z,11.95
2019-03-10T09:20:47.151Z,12.60
2019-03-10T09:23:23.136Z,9.78
2019-03-10T09:25:59.106Z,5.97
2019-03-10T09:28:32.130Z,5.70
2019-03-10T09:31:05.218Z,8.18
2019-03-10T09:33:38.116Z,5.70
2019-03-10T09:36:25.003Z,5.95
2019-03-10T09:39:10.348Z,4.72
2019-03-10T09:41:47.333Z,27.67
2019-03-10T09:44:20.229Z,11.22
2019-03-10T09:46:56.078Z,5.70
2019-03-10T09:49:32.281Z,4.08
2019-03-10T09:52:19.005Z,4.83
2019-03-10T09:55:00.841Z,3.58
2019-03-10T09:57:30.226Z,2.90
2019-03-10T10:00:03.284Z,5.40
2019-03-10T10:02:36.195Z,3.30
2019-03-10T10:05:08.507Z,3.17
2019-03-10T10:07:55.333Z,3.55
2019-03-10T10:10:25.998Z,3.65
2019-03-10T10:13:05.226Z,3.10
2019-03-10T10:15:35.309Z,7.45
2019-03-10T10:18:14.168Z,6.40
2019-03-10T10:20:59.266Z,4.53
2019-03-10T10:23:44.322Z,2.30
2019-03-10T10:26:29.814Z,3.42
2019-03-10T10:29:02.514Z,4.53
2019-03-10T10:34:17.512Z,4.03
2019-03-10T10:37:05.629Z,5.72
2019-03-10T10:39:35.620Z,3.77
2019-03-10T10:42:05.678Z,5.15
2019-03-10T10:44:54.192Z,6.83
2019-03-10T10:47:26.726Z,7.97
2019-03-10T10:50:08.514Z,5.15
2019-03-10T10:52:41.325Z,3.15
2019-03-10T10:58:09.224Z,2.90
2019-03-10T11:00:39.282Z,5.03
2019-03-10T11:03:25.683Z,6.55
2019-03-10T11:06:13.861Z,2.62
2019-03-10T11:08:43.906Z,3.00
2019-03-10T11:11:25.838Z,4.53
2019-03-10T11:14:01.742Z,2.25
2019-03-10T11:16:45.509Z,7.37
2019-03-10T11:19:22.206Z,5.83
2019-03-10T11:21:55.158Z,6.80
2019-03-10T11:24:25.317Z,7.72
2019-03-10T11:26:55.366Z,5.78
2019-03-10T11:29:42.005Z,6.40
2019-03-10T11:32:17.522Z,11.65
2019-03-10T11:34:47.602Z,11.08
2019-03-10T11:37:20.406Z,6.03
2019-03-10T11:42:44.429Z,5.25
2019-03-10T11:45:23.587Z,22.20
2019-03-10T11:47:58.403Z,19.30
2019-03-10T11:50:31.242Z,6.08
2019-03-10T11:53:03.902Z,8.65
2019-03-10T11:55:50.528Z,4.03
2019-03-10T11:58:20.571Z,3.12
2019-03-10T12:00:50.591Z,7.22
2019-03-10T12:03:23.505Z,5.42
2019-03-10T12:05:53.563Z,6.10
2019-03-10T12:08:26.386Z,4.20
2019-03-10T12:10:54.971Z,4.33
2019-03-10T12:13:23.473Z,6.83
2019-03-10T12:15:51.881Z,8.00
2019-03-10T12:18:20.436Z,4.97
2019-03-10T12:20:48.884Z,6.70
2019-03-10T12:23:17.633Z,5.33
2019-03-10T12:25:46.170Z,5.12
2019-03-10T12:28:14.562Z,3.95
2019-03-10T12:30:43.076Z,8.33
2019-03-10T12:33:11.462Z,5.90
2019-03-10T12:35:39.875Z,5.78
2019-03-10T12:38:08.282Z,7.55
2019-03-10T12:40:36.767Z,10.10
2019-03-10T12:43:05.145Z,9.88
2019-03-10T12:45:33.581Z,4.83
2019-03-10T12:48:02.060Z,7.42
2019-03-10T12:50:30.485Z,5.35
2019-03-10T12:52:58.975Z,27.10
2019-03-10T12:55:27.399Z,17.98
2019-03-10T12:57:56.758Z,26.73
2019-03-10T13:00:25.134Z,13.32
2019-03-10T13:02:53.582Z,14.93
2019-03-10T13:08:11.274Z,22.95
2019-03-10T13:10:39.724Z,12.58
2019-03-10T13:13:08.083Z,20.10
2019-03-10T13:15:36.471Z,14.95
2019-03-10T13:18:04.886Z,14.13
2019-03-10T13:20:34.125Z,11.85
2019-03-10T13:23:02.731Z,14.83
2019-03-10T13:25:31.096Z,11.55
2019-03-10T13:27:59.578Z,14.75
2019-03-10T13:30:27.998Z,22.52
2019-03-10T13:32:56.441Z,14.28
2019-03-10T13:35:24.983Z,12.88
2019-03-10T13:37:53.452Z,8.25
2019-03-10T13:40:21.860Z,13.50
2019-03-10T13:42:50.245Z,8.00
2019-03-10T13:45:19.400Z,11.48
2019-03-10T13:47:47.859Z,7.28
2019-03-10T13:50:16.583Z,7.70
2019-03-10T13:52:45.044Z,5.53
2019-03-10T13:55:13.543Z,4.20
2019-03-10T13:57:42.095Z,7.58
2019-03-10T14:00:17.432Z,5.78
2019-03-10T14:02:45.896Z,4.65
2019-03-10T14:05:14.265Z,8.80
2019-03-10T14:07:42.809Z,13.88
2019-03-10T14:10:11.619Z,4.30
2019-03-10T14:12:39.969Z,3.75
2019-03-10T14:15:15.824Z,5.33
2019-03-10T14:17:44.642Z,7.83
2019-03-10T14:20:14.434Z,10.32
2019-03-10T14:22:42.921Z,8.33
2019-03-10T14:25:12.698Z,6.12
2019-03-10T14:27:41.094Z,11.73
2019-03-10T14:30:14.813Z,6.20
2019-03-10T14:32:43.327Z,8.95
2019-03-10T14:35:11.870Z,7.33
2019-03-10T14:37:40.313Z,5.28
2019-03-10T14:40:12.215Z,8.70
2019-03-10T14:42:40.657Z,5.53
2019-03-10T14:45:12.516Z,7.67
2019-03-10T14:47:40.886Z,2.93
2019-03-10T14:50:11.533Z,2.05
2019-03-10T14:52:39.987Z,2.20
2019-03-10T14:55:14.239Z,3.60
2019-03-10T14:57:42.973Z,10.48
2019-03-10T15:00:23.094Z,11.30
2019-03-10T15:02:51.500Z,3.95
2019-03-10T15:05:20.004Z,6.62
2019-03-10T15:07:48.395Z,7.42
2019-03-10T15:10:16.952Z,11.08
2019-03-10T15:12:45.333Z,10.03
2019-03-10T15:15:22.392Z,7.62
2019-03-10T15:17:46.141Z,11.00
2019-03-10T15:20:15.675Z,6.75
2019-03-10T15:22:44.253Z,7.65
2019-03-10T15:25:14.595Z,7.70
2019-03-10T15:27:43.052Z,13.13
2019-03-10T15:30:20.061Z,10.03
2019-03-10T15:32:48.477Z,10.32
2019-03-10T15:35:16.885Z,10.25
2019-03-10T15:37:45.299Z,17.20
2019-03-10T15:40:16.355Z,13.35
2019-03-10T15:42:45.447Z,19.00
2019-03-10T15:45:18.092Z,14.65
2019-03-10T15:50:28.506Z,24.57
2019-03-10T15:52:57.090Z,37.15
2019-03-10T15:55:25.505Z,38.63
2019-03-10T15:57:54.016Z,38.28
2019-03-10T16:00:24.766Z,52.50
2019-03-10T16:02:53.323Z,58.13
2019-03-10T16:05:21.665Z,56.65
2019-03-10T16:07:50.101Z,55.45
2019-03-10T16:10:18.642Z,46.80
2019-03-10T16:12:49.317Z,32.65
2019-03-10T16:15:24.737Z,36.80
2019-03-10T16:17:53.245Z,26.82
2019-03-10T16:20:21.670Z,27.80
2019-03-10T16:22:50.038Z,25.70
2019-03-10T16:25:21.181Z,20.95
2019-03-10T16:27:50.093Z,25.08
2019-03-10T16:30:22.021Z,23.62
2019-03-10T16:32:50.459Z,25.17
2019-03-10T16:35:18.867Z,20.45
2019-03-10T16:37:47.320Z,23.65
2019-03-10T16:40:17.937Z,24.85
2019-03-10T16:42:46.296Z,16.82
2019-03-10T16:45:20.795Z,16.32
2019-03-10T16:47:49.217Z,14.30
2019-03-10T16:50:24.964Z,5.83
2019-03-10T16:52:53.352Z,8.80
2019-03-10T16:55:21.759Z,7.25
2019-03-10T16:57:50.201Z,6.70
2019-03-10T17:00:20.368Z,8.50
2019-03-10T17:02:49.852Z,5.45
2019-03-10T17:05:22.464Z,10.35
2019-03-10T17:10:23.788Z,10.93
2019-03-10T17:12:52.302Z,12.03
2019-03-10T17:15:22.943Z,11.38
2019-03-10T17:17:51.551Z,14.98
2019-03-10T17:20:20.372Z,7.53
2019-03-10T17:22:48.945Z,13.62
2019-03-10T17:25:20.094Z,9.73
2019-03-10T17:27:48.576Z,10.45
2019-03-10T17:30:20.785Z,14.03
2019-03-10T17:32:49.333Z,11.90
2019-03-10T17:35:18.394Z,11.43
2019-03-10T17:37:48.448Z,10.48
2019-03-10T17:40:21.566Z,10.53
2019-03-10T17:42:50.004Z,13.15
2019-03-10T17:45:21.643Z,10.58
2019-03-10T17:47:50.079Z,11.43
2019-03-10T17:50:19.083Z,14.90
2019-03-10T17:52:47.949Z,19.05
2019-03-10T17:55:17.907Z,14.35
2019-03-10T17:57:46.315Z,15.98
2019-03-10T18:00:17.785Z,21.00
2019-03-10T18:02:46.206Z,22.82
2019-03-10T18:05:14.750Z,25.15
2019-03-10T18:07:43.188Z,30.60
2019-03-10T18:10:13.706Z,37.10
2019-03-10T18:12:42.121Z,37.30
2019-03-10T18:15:11.889Z,34.40
2019-03-10T18:17:40.415Z,35.75
2019-03-10T18:20:17.308Z,31.00
2019-03-10T18:22:45.924Z,24.60
2019-03-10T18:25:14.781Z,17.57
2019-03-10T18:27:43.405Z,21.17
2019-03-10T18:30:20.059Z,16.93
2019-03-10T18:32:48.501Z,16.70
2019-03-10T18:35:17.197Z,16.20
2019-03-10T18:37:45.689Z,14.50
2019-03-10T18:40:20.239Z,15.65
2019-03-10T18:42:48.654Z,8.93
2019-03-10T18:45:18.298Z,7.75
2019-03-10T18:47:46.820Z,13.18
2019-03-10T18:50:21.295Z,13.53
2019-03-10T18:52:49.670Z,25.68
2019-03-10T18:55:18.603Z,10.88
2019-03-10T18:57:47.070Z,6.30
2019-03-10T19:00:24.578Z,6.72
2019-03-10T19:02:53.006Z,9.60
2019-03-10T19:05:21.511Z,7.90
2019-03-10T19:07:50.119Z,11.75
2019-03-10T19:10:18.735Z,11.25
2019-03-10T19:12:47.222Z,11.68
2019-03-10T19:15:26.401Z,10.95
2019-03-10T19:17:54.839Z,8.05
2019-03-10T19:20:23.240Z,6.85
2019-03-10T19:22:51.871Z,5.92
2019-03-10T19:25:20.294Z,7.92
2019-03-10T19:27:48.810Z,10.28
2019-03-10T19:30:22.517Z,8.55
2019-03-10T19:32:50.959Z,8.85
2019-03-10T19:35:19.363Z,16.67
2019-03-10T19:37:52.238Z,10.50
2019-03-10T19:40:21.825Z,7.08
2019-03-10T19:42:50.296Z,5.58
2019-03-10T19:45:19.831Z,9.45
2019-03-10T19:47:48.259Z,4.83
2019-03-10T19:50:28.035Z,8.00
2019-03-10T19:52:56.666Z,5.47
2019-03-10T19:55:25.135Z,6.83
2019-03-10T19:57:53.592Z,6.37
2019-03-10T20:00:22.442Z,10.05
2019-03-10T20:02:50.814Z,8.28
2019-03-10T20:05:19.282Z,8.30
2019-03-10T20:07:47.648Z,8.60
2019-03-10T20:10:20.021Z,8.93
2019-03-10T20:12:48.421Z,6.87
2019-03-10T20:15:18.246Z,10.53
2019-03-10T20:17:46.823Z,12.13
2019-03-10T20:20:19.997Z,9.00
2019-03-10T20:22:48.542Z,9.95
2019-03-10T20:25:16.961Z,6.83
2019-03-10T20:27:45.461Z,8.90
2019-03-10T20:30:22.766Z,15.60
2019-03-10T20:32:51.162Z,8.35
2019-03-10T20:35:19.537Z,16.35
2019-03-10T20:37:47.940Z,9.65
2019-03-10T20:40:26.525Z,8.63
2019-03-10T20:42:54.954Z,20.35
2019-03-10T20:45:24.757Z,12.00
2019-03-10T20:47:56.108Z,13.15
2019-03-10T20:50:23.631Z,12.82
2019-03-10T20:52:52.075Z,17.77
2019-03-10T20:55:20.607Z,22.52
2019-03-10T20:57:48.999Z,24.40
2019-03-10T21:00:25.398Z,15.23
2019-03-10T21:02:53.929Z,20.17
2019-03-10T21:05:22.412Z,21.85
2019-03-10T21:07:50.887Z,19.48
2019-03-10T21:10:21.083Z,26.93
2019-03-10T21:12:49.502Z,26.85
2019-03-10T21:15:20.350Z,32.70
2019-03-10T21:17:48.723Z,28.57
2019-03-10T21:20:18.387Z,28.62
2019-03-10T21:22:46.899Z,25.15
2019-03-10T21:25:25.698Z,37.98
2019-03-10T21:27:54.178Z,34.67
2019-03-10T21:30:24.191Z,42.60
2019-03-10T21:32:52.644Z,31.00
2019-03-10T21:35:21.168Z,26.85
2019-03-10T21:37:49.570Z,44.53
2019-03-10T21:40:29.189Z,42.80
2019-03-10T21:42:57.594Z,46.75
2019-03-10T21:45:26.032Z,53.20
2019-03-10T21:47:54.420Z,62.88
2019-03-10T21:50:23.007Z,59.20
2019-03-10T21:52:51.377Z,51.18
2019-03-10T21:55:19.971Z,50.65
2019-03-10T21:57:48.420Z,52.38
2019-03-10T22:00:19.030Z,57.35
2019-03-10T22:02:47.492Z,76.95
2019-03-10T22:05:16.721Z,88.85
2019-03-10T22:07:45.260Z,71.87
2019-03-10T22:10:27.192Z,63.23
2019-03-10T22:12:49.083Z,52.93
2019-03-10T22:15:21.165Z,62.27
2019-03-10T22:17:49.611Z,48.60
2019-03-10T22:20:18.807Z,66.33
2019-03-10T22:22:49.629Z,64.60
2019-03-10T22:25:17.365Z,36.88
2019-03-10T22:27:46.414Z,40.28
2019-03-10T22:30:24.278Z,44.53
2019-03-10T22:32:52.799Z,47.25
2019-03-10T22:35:21.211Z,40.90
2019-03-10T22:37:49.622Z,38.65
2019-03-10T22:40:18.336Z,32.50
2019-03-10T22:42:46.715Z,37.65
2019-03-10T22:45:18.787Z,41.20
2019-03-10T22:47:47.211Z,44.05
2019-03-10T22:50:16.271Z,32.75
2019-03-10T22:52:44.761Z,28.70
2019-03-10T22:55:13.785Z,26.97
2019-03-10T22:57:42.283Z,29.27
2019-03-10T23:00:21.614Z,19.95
2019-03-10T23:02:50.052Z,20.97
2019-03-10T23:05:18.457Z,19.77
2019-03-10T23:07:46.893Z,20.68
2019-03-10T23:10:15.787Z,19.15
2019-03-10T23:12:44.198Z,16.10
2019-03-10T23:15:13.602Z,16.82
2019-03-10T23:17:42.026Z,14.83
2019-03-10T23:20:17.070Z,22.55
2019-03-10T23:22:45.476Z,14.70
2019-03-10T23:25:13.855Z,13.35
2019-03-10T23:27:42.563Z,9.68
2019-03-10T23:30:14.175Z,10.78
2019-03-10T23:32:42.659Z,14.90
2019-03-10T23:35:11.118Z,11.08
2019-03-10T23:37:39.549Z,12.65
2019-03-10T23:40:21.658Z,10.32
2019-03-10T23:42:50.045Z,10.08
2019-03-10T23:45:18.905Z,12.37
2019-03-10T23:47:47.574Z,11.93
2019-03-10T23:50:19.470Z,10.15
2019-03-10T23:52:47.810Z,8.03
2019-03-10T23:55:16.257Z,11.03
2019-03-10T23:57:44.645Z,7.40
